createdAt,value
2022-08-24T00:02:06.300Z,4.55
2022-08-24T00:04:36.117Z,2.65
2022-08-24T00:07:13.831Z,2.65
2022-08-24T00:09:57.393Z,3.78
2022-08-24T00:12:26.696Z,3.45
2022-08-24T00:14:56.655Z,4.82
2022-08-24T00:17:26.061Z,3.47
2022-08-24T00:19:55.381Z,2.83
2022-08-24T00:22:24.612Z,5.82
2022-08-24T00:24:53.974Z,2.90
2022-08-24T00:27:24.682Z,3.30
2022-08-24T00:29:53.976Z,5.13
2022-08-24T00:32:23.248Z,4.53
2022-08-24T00:34:58.405Z,4.53
2022-08-24T00:37:30.034Z,2.17
2022-08-24T00:39:59.991Z,3.38
2022-08-24T00:42:30.647Z,4.22
2022-08-24T00:44:59.888Z,4.50
2022-08-24T00:47:36.383Z,4.15
2022-08-24T00:50:08.824Z,1.90
2022-08-24T00:52:42.594Z,3.83
2022-08-24T00:55:15.861Z,5.30
2022-08-24T00:57:50.670Z,2.42
2022-08-24T01:00:24.177Z,3.67
2022-08-24T01:03:04.483Z,5.97
2022-08-24T01:05:34.176Z,5.18
2022-08-24T01:08:05.679Z,3.38
2022-08-24T01:10:39.354Z,2.45
2022-08-24T01:13:12.237Z,2.35
2022-08-24T01:15:45.916Z,4.07
2022-08-24T01:18:35.983Z,3.42
2022-08-24T01:21:13.500Z,2.47
2022-08-24T01:23:45.938Z,4.63
2022-08-24T01:26:19.521Z,2.10
2022-08-24T01:28:53.246Z,5.22
2022-08-24T01:31:23.657Z,5.88
2022-08-24T01:33:54.710Z,4.82
2022-08-24T01:36:31.024Z,5.40
2022-08-24T01:39:05.349Z,3.97
2022-08-24T01:41:34.631Z,3.67
2022-08-24T01:44:05.650Z,3.90
2022-08-24T01:46:35.835Z,3.80
2022-08-24T01:49:05.501Z,3.40
2022-08-24T01:51:35.568Z,6.00
2022-08-24T01:54:06.735Z,2.97
2022-08-24T01:56:36.896Z,5.72
2022-08-24T01:59:08.324Z,3.92
2022-08-24T02:01:41.428Z,4.55
2022-08-24T02:04:11.464Z,7.00
2022-08-24T02:06:48.768Z,4.25
2022-08-24T02:09:20.813Z,4.18
2022-08-24T02:11:50.871Z,9.82
2022-08-24T02:14:20.816Z,3.70
2022-08-24T02:16:50.121Z,2.80
2022-08-24T02:19:26.747Z,5.45
2022-08-24T02:21:56.209Z,2.97
2022-08-24T02:24:26.869Z,5.75
2022-08-24T02:26:57.053Z,7.63
2022-08-24T02:29:26.828Z,5.57
2022-08-24T02:31:58.054Z,7.90
2022-08-24T02:34:27.864Z,5.88
2022-08-24T02:36:58.104Z,3.60
2022-08-24T02:39:29.331Z,6.65
2022-08-24T02:41:58.778Z,4.65
2022-08-24T02:44:27.972Z,5.75
2022-08-24T02:46:57.588Z,3.80
2022-08-24T02:49:26.900Z,3.38
2022-08-24T02:51:56.853Z,6.85
2022-08-24T02:54:27.701Z,7.57
2022-08-24T02:56:57.237Z,4.32
2022-08-24T02:59:27.112Z,7.35
2022-08-24T03:01:56.504Z,4.28
2022-08-24T03:04:26.734Z,7.22
2022-08-24T03:06:55.907Z,4.95
2022-08-24T03:09:25.441Z,5.40
2022-08-24T03:12:01.169Z,3.33
2022-08-24T03:14:30.509Z,5.47
2022-08-24T03:16:59.775Z,3.13
2022-08-24T03:19:29.117Z,5.35
2022-08-24T03:21:59.078Z,3.83
2022-08-24T03:24:28.631Z,5.90
2022-08-24T03:26:58.580Z,3.35
2022-08-24T03:29:33.774Z,6.05
2022-08-24T03:32:05.297Z,5.35
2022-08-24T03:34:34.961Z,4.43
2022-08-24T03:37:05.031Z,3.83
2022-08-24T03:39:34.932Z,3.58
2022-08-24T03:42:04.902Z,4.15
2022-08-24T03:44:35.614Z,3.67
2022-08-24T03:47:05.245Z,5.38
2022-08-24T03:49:34.652Z,6.00
2022-08-24T03:52:04.359Z,4.40
2022-08-24T03:54:33.941Z,6.70
2022-08-24T03:57:03.438Z,5.82
2022-08-24T03:59:34.322Z,4.43
2022-08-24T04:02:10.435Z,4.43
2022-08-24T04:04:44.327Z,4.13
2022-08-24T04:07:13.864Z,4.25
2022-08-24T04:09:43.149Z,3.92
2022-08-24T04:12:12.512Z,6.32
2022-08-24T04:14:43.141Z,6.05
2022-08-24T04:17:17.051Z,3.53
2022-08-24T04:19:58.601Z,4.30
2022-08-24T04:22:37.725Z,3.17
2022-08-24T04:25:09.589Z,4.97
2022-08-24T04:27:42.079Z,6.63
2022-08-24T04:30:15.362Z,6.55
2022-08-24T04:33:03.210Z,3.10
2022-08-24T04:35:33.560Z,4.07
2022-08-24T04:38:02.833Z,3.92
2022-08-24T04:40:32.515Z,4.15
2022-08-24T04:43:02.004Z,3.90
2022-08-24T04:45:34.353Z,6.28
2022-08-24T04:48:06.020Z,6.90
2022-08-24T04:50:36.728Z,3.63
2022-08-24T04:53:11.912Z,5.85
2022-08-24T04:55:46.121Z,4.25
2022-08-24T04:58:17.681Z,5.30
2022-08-24T05:00:49.327Z,6.50
2022-08-24T05:03:19.302Z,4.15
2022-08-24T05:05:51.394Z,6.75
2022-08-24T05:08:21.774Z,8.18
2022-08-24T05:10:52.003Z,4.82
2022-08-24T05:13:22.742Z,4.40
2022-08-24T05:15:53.533Z,5.97
2022-08-24T05:18:23.178Z,4.30
2022-08-24T05:20:52.464Z,7.07
2022-08-24T05:23:21.884Z,5.28
2022-08-24T05:25:52.701Z,5.18
2022-08-24T05:28:23.681Z,4.10
2022-08-24T05:30:57.544Z,5.38
2022-08-24T05:33:27.631Z,4.97
2022-08-24T05:35:56.967Z,6.13
2022-08-24T05:38:27.434Z,4.30
2022-08-24T05:40:57.383Z,6.05
2022-08-24T05:43:28.555Z,4.78
2022-08-24T05:45:59.381Z,4.32
2022-08-24T05:48:28.883Z,4.22
2022-08-24T05:51:11.793Z,6.95
2022-08-24T05:53:51.536Z,4.18
2022-08-24T05:56:22.196Z,4.07
2022-08-24T05:58:52.493Z,6.53
2022-08-24T06:01:26.567Z,4.68
2022-08-24T06:03:57.345Z,5.93
2022-08-24T06:06:28.109Z,7.25
2022-08-24T06:08:59.327Z,4.90
2022-08-24T06:11:32.233Z,5.35
2022-08-24T06:14:07.394Z,4.85
2022-08-24T06:16:43.174Z,12.70
2022-08-24T06:20:17.708Z,13.25
2022-08-24T06:22:47.334Z,20.25
2022-08-24T06:25:34.208Z,13.85
2022-08-24T06:28:03.557Z,11.20
2022-08-24T06:30:32.713Z,16.67
2022-08-24T06:33:19.027Z,9.57
2022-08-24T06:35:51.693Z,12.60
2022-08-24T06:38:22.172Z,11.85
2022-08-24T06:40:53.419Z,10.38
2022-08-24T06:43:24.753Z,6.72
2022-08-24T06:45:57.655Z,7.57
2022-08-24T06:48:34.766Z,9.02
2022-08-24T06:51:09.336Z,7.78
2022-08-24T06:53:41.113Z,7.03
2022-08-24T06:56:11.970Z,7.32
2022-08-24T06:58:42.009Z,7.32
2022-08-24T07:01:18.123Z,5.28
2022-08-24T07:03:49.984Z,6.00
2022-08-24T07:06:39.383Z,7.18
2022-08-24T07:09:08.785Z,7.95
2022-08-24T07:11:38.532Z,5.07
2022-08-24T07:14:08.733Z,6.93
2022-08-24T07:16:38.709Z,4.22
2022-08-24T07:19:10.139Z,5.90
2022-08-24T07:21:39.503Z,4.45
2022-08-24T07:24:08.941Z,6.40
2022-08-24T07:26:41.551Z,3.80
2022-08-24T07:29:36.822Z,3.58
2022-08-24T07:32:06.791Z,5.18
2022-08-24T07:34:40.118Z,4.18
2022-08-24T07:37:10.638Z,6.00
2022-08-24T07:39:44.032Z,5.18
2022-08-24T07:42:19.067Z,5.95
2022-08-24T07:44:51.922Z,4.43
2022-08-24T07:47:37.497Z,4.55
2022-08-24T07:50:20.115Z,3.85
2022-08-24T07:52:49.522Z,3.85
2022-08-24T07:55:19.093Z,6.70
2022-08-24T07:57:49.259Z,3.20
2022-08-24T08:00:21.514Z,6.30
2022-08-24T08:02:57.000Z,4.05
2022-08-24T08:05:28.122Z,7.32
2022-08-24T08:07:59.127Z,5.40
2022-08-24T08:10:31.343Z,5.35
2022-08-24T08:13:00.731Z,4.50
2022-08-24T08:15:30.059Z,6.47
2022-08-24T08:18:06.110Z,4.00
2022-08-24T08:20:42.309Z,4.95
2022-08-24T08:23:30.407Z,5.45
2022-08-24T08:26:16.658Z,4.50
2022-08-24T08:29:08.436Z,5.43
2022-08-24T08:31:39.519Z,4.40
2022-08-24T08:34:10.621Z,4.75
2022-08-24T08:36:42.264Z,5.90
2022-08-24T08:39:14.746Z,6.78
2022-08-24T08:42:15.139Z,6.55
2022-08-24T08:45:18.576Z,4.18
2022-08-24T08:48:22.904Z,6.20
2022-08-24T08:51:30.510Z,8.98
2022-08-24T08:54:19.463Z,8.45
2022-08-24T08:57:12.567Z,4.47
2022-08-24T08:59:58.212Z,4.15
2022-08-24T09:02:52.123Z,4.70
2022-08-24T09:06:05.287Z,4.30
2022-08-24T09:08:57.533Z,5.45
2022-08-24T09:11:38.279Z,6.60
2022-08-24T09:14:34.533Z,3.78
2022-08-24T09:17:17.579Z,4.57
2022-08-24T09:20:11.122Z,7.30
2022-08-24T09:22:43.584Z,4.20
2022-08-24T09:25:30.126Z,4.57
2022-08-24T09:28:21.699Z,4.53
2022-08-24T09:31:29.781Z,4.15
2022-08-24T09:34:09.836Z,5.85
2022-08-24T09:36:55.393Z,4.10
2022-08-24T09:39:50.756Z,5.00
2022-08-24T09:42:57.645Z,5.55
2022-08-24T09:45:58.651Z,4.63
2022-08-24T09:49:03.992Z,6.35
2022-08-24T09:52:10.542Z,4.20
2022-08-24T09:55:16.028Z,7.00
2022-08-24T09:58:01.601Z,5.38
2022-08-24T10:00:35.925Z,4.32
2022-08-24T10:03:35.003Z,5.05
2022-08-24T10:06:26.758Z,4.45
2022-08-24T10:09:24.260Z,5.35
2022-08-24T10:12:02.626Z,5.65
2022-08-24T10:14:46.167Z,5.00
2022-08-24T10:17:22.018Z,4.43
2022-08-24T10:20:06.332Z,5.03
2022-08-24T10:22:56.549Z,4.63
2022-08-24T10:25:36.463Z,7.68
2022-08-24T10:28:29.059Z,4.43
2022-08-24T10:31:06.890Z,4.53
2022-08-24T10:33:48.756Z,7.03
2022-08-24T10:36:45.426Z,3.97
2022-08-24T10:39:43.613Z,6.22
2022-08-24T10:43:05.687Z,4.18
2022-08-24T10:46:09.814Z,9.48
2022-08-24T10:48:59.655Z,3.20
2022-08-24T10:51:40.356Z,4.55
2022-08-24T10:54:14.059Z,3.65
2022-08-24T10:56:50.632Z,3.63
2022-08-24T10:59:25.070Z,3.47
2022-08-24T11:02:10.031Z,3.95
2022-08-24T11:04:43.685Z,4.13
2022-08-24T11:07:19.679Z,3.00
2022-08-24T11:09:54.257Z,4.45
2022-08-24T11:12:27.710Z,3.38
2022-08-24T11:14:59.486Z,4.75
2022-08-24T11:17:30.803Z,4.07
2022-08-24T11:20:00.595Z,3.38
2022-08-24T11:22:37.107Z,5.70
2022-08-24T11:25:16.522Z,3.20
2022-08-24T11:27:47.810Z,3.00
2022-08-24T11:30:25.643Z,3.13
2022-08-24T11:32:57.179Z,3.45
2022-08-24T11:35:28.856Z,3.50
2022-08-24T11:38:21.513Z,3.53
2022-08-24T11:40:56.844Z,2.72
2022-08-24T11:43:55.735Z,3.15
2022-08-24T11:46:33.698Z,3.30
2022-08-24T11:49:11.324Z,2.83
2022-08-24T11:51:50.988Z,3.40
2022-08-24T11:54:27.642Z,3.35
2022-08-24T11:57:10.465Z,3.00
2022-08-24T11:59:47.398Z,3.20
2022-08-24T12:02:23.423Z,2.97
2022-08-24T12:04:59.043Z,2.83
2022-08-24T12:07:37.212Z,4.68
2022-08-24T12:10:28.548Z,2.40
2022-08-24T12:13:07.731Z,3.17
2022-08-24T12:15:51.828Z,2.95
2022-08-24T12:18:31.180Z,3.95
2022-08-24T12:21:00.708Z,4.20
2022-08-24T12:23:37.503Z,2.50
2022-08-24T12:26:12.847Z,3.28
2022-08-24T12:28:54.113Z,2.50
2022-08-24T12:31:29.722Z,5.30
2022-08-24T12:34:03.040Z,3.90
2022-08-24T12:36:37.859Z,3.80
2022-08-24T12:39:14.473Z,2.60
2022-08-24T12:41:53.681Z,2.70
2022-08-24T12:44:40.014Z,2.92
2022-08-24T12:47:09.567Z,4.65
2022-08-24T12:49:48.057Z,3.78
2022-08-24T12:52:37.549Z,2.97
2022-08-24T12:55:28.091Z,3.45
2022-08-24T12:58:31.067Z,3.10
2022-08-24T13:01:03.914Z,3.10
2022-08-24T13:03:37.820Z,4.47
2022-08-24T13:06:09.881Z,4.32
2022-08-24T13:08:42.212Z,2.78
2022-08-24T13:11:15.004Z,2.60
2022-08-24T13:13:48.164Z,2.60
2022-08-24T13:16:50.285Z,4.13
2022-08-24T13:19:34.713Z,3.13
2022-08-24T13:22:36.961Z,2.97
2022-08-24T13:25:24.575Z,2.58
2022-08-24T13:28:06.946Z,2.70
2022-08-24T13:30:55.223Z,2.60
2022-08-24T13:33:33.091Z,2.60
2022-08-24T13:36:08.635Z,2.83
2022-08-24T13:38:59.797Z,4.78
2022-08-24T13:41:55.367Z,2.50
2022-08-24T13:44:33.011Z,2.83
2022-08-24T13:47:13.101Z,4.05
2022-08-24T13:50:02.303Z,2.95
2022-08-24T13:52:42.913Z,2.30
2022-08-24T13:55:29.133Z,2.45
2022-08-24T13:58:14.779Z,2.00
2022-08-24T14:00:50.147Z,2.25
2022-08-24T14:03:46.481Z,2.65
2022-08-24T14:06:29.045Z,2.35
2022-08-24T14:09:13.104Z,3.55
2022-08-24T14:11:59.332Z,2.42
2022-08-24T14:14:47.138Z,2.85
2022-08-24T14:17:40.848Z,2.30
2022-08-24T14:20:22.244Z,2.50
2022-08-24T14:23:04.761Z,3.35
2022-08-24T14:25:36.467Z,2.20
2022-08-24T14:28:35.458Z,2.92
2022-08-24T14:31:18.165Z,2.22
2022-08-24T14:34:22.825Z,2.30
2022-08-24T14:36:59.604Z,3.33
2022-08-24T14:39:38.323Z,2.28
2022-08-24T14:42:17.746Z,2.85
2022-08-24T14:44:53.012Z,2.55
2022-08-24T14:47:35.862Z,3.30
2022-08-24T14:50:13.782Z,2.00
2022-08-24T14:53:02.169Z,2.10
2022-08-24T14:55:43.488Z,1.85
2022-08-24T14:58:29.304Z,2.20
2022-08-24T15:01:36.822Z,4.68
2022-08-24T15:04:37.106Z,3.55
2022-08-24T15:07:29.275Z,2.00
2022-08-24T15:10:00.413Z,2.30
2022-08-24T15:12:38.096Z,2.47
2022-08-24T15:15:15.448Z,3.05
2022-08-24T15:17:55.034Z,2.60
2022-08-24T15:20:58.742Z,1.90
2022-08-24T15:23:43.761Z,3.53
2022-08-24T15:26:19.727Z,2.13
2022-08-24T15:28:55.396Z,2.15
2022-08-24T15:31:28.959Z,1.95
2022-08-24T15:34:02.451Z,2.33
2022-08-24T15:36:34.450Z,2.28
2022-08-24T15:39:05.870Z,2.88
2022-08-24T15:41:38.160Z,2.47
2022-08-24T15:44:12.715Z,2.92
2022-08-24T15:46:53.395Z,1.80
2022-08-24T15:49:25.472Z,1.67
2022-08-24T15:51:57.754Z,2.00
2022-08-24T15:54:34.149Z,1.80
2022-08-24T15:57:05.894Z,2.20
2022-08-24T15:59:49.293Z,1.80
2022-08-24T16:02:27.035Z,3.40
2022-08-24T16:05:14.419Z,1.98
2022-08-24T16:08:12.075Z,1.90
2022-08-24T16:10:43.273Z,2.47
2022-08-24T16:13:26.374Z,2.50
2022-08-24T16:16:02.717Z,2.00
2022-08-24T16:18:47.973Z,2.10
2022-08-24T16:21:22.840Z,2.15
2022-08-24T16:24:01.500Z,1.60
2022-08-24T16:26:33.646Z,1.85
2022-08-24T16:29:03.144Z,2.00
2022-08-24T16:31:52.028Z,1.75
2022-08-24T16:34:30.986Z,4.28
2022-08-24T16:37:00.586Z,4.72
2022-08-24T16:39:29.779Z,3.22
2022-08-24T16:42:01.300Z,2.10
2022-08-24T16:44:36.825Z,3.40
2022-08-24T16:47:08.714Z,4.85
2022-08-24T16:49:39.378Z,3.63
2022-08-24T16:52:08.652Z,2.28
2022-08-24T16:54:37.823Z,6.45
2022-08-24T16:57:13.096Z,5.25
2022-08-24T16:59:44.480Z,7.13
2022-08-24T17:02:15.731Z,6.43
2022-08-24T17:04:45.126Z,3.55
2022-08-24T17:07:17.580Z,3.67
2022-08-24T17:09:48.503Z,3.78
2022-08-24T17:12:17.965Z,4.68
2022-08-24T17:14:47.082Z,2.92
2022-08-24T17:17:21.779Z,5.65
2022-08-24T17:19:53.245Z,6.07
2022-08-24T17:22:23.387Z,3.97
2022-08-24T17:24:53.065Z,2.38
2022-08-24T17:27:29.587Z,3.63
2022-08-24T17:29:59.726Z,2.47
2022-08-24T17:32:30.428Z,3.13
2022-08-24T17:34:59.686Z,4.47
2022-08-24T17:37:29.130Z,3.95
2022-08-24T17:40:00.371Z,4.28
2022-08-24T17:45:19.266Z,2.65
2022-08-24T17:47:50.110Z,2.83
2022-08-24T17:50:20.078Z,6.30
2022-08-24T17:52:49.494Z,6.55
2022-08-24T17:55:25.886Z,4.40
2022-08-24T17:57:55.232Z,3.75
2022-08-24T18:00:24.600Z,5.32
2022-08-24T18:02:55.172Z,4.75
2022-08-24T18:05:24.757Z,4.07
2022-08-24T18:07:56.444Z,3.53
2022-08-24T18:10:28.803Z,2.63
2022-08-24T18:12:58.632Z,4.30
2022-08-24T18:15:34.823Z,4.18
2022-08-24T18:18:09.889Z,3.40
2022-08-24T18:20:41.708Z,3.05
2022-08-24T18:23:11.807Z,6.43
2022-08-24T18:25:45.944Z,2.55
2022-08-24T18:28:16.879Z,2.50
2022-08-24T18:30:47.297Z,2.20
2022-08-24T18:33:18.413Z,2.80
2022-08-24T18:35:47.775Z,4.03
2022-08-24T18:38:17.074Z,2.75
2022-08-24T18:40:52.398Z,3.65
2022-08-24T18:43:25.168Z,3.40
2022-08-24T18:45:55.172Z,4.00
2022-08-24T18:48:25.779Z,2.40
2022-08-24T18:50:55.144Z,2.72
2022-08-24T18:53:27.394Z,3.42
2022-08-24T18:55:57.765Z,2.53
2022-08-24T18:58:29.316Z,2.55
2022-08-24T19:01:00.816Z,2.88
2022-08-24T19:03:33.901Z,2.30
2022-08-24T19:06:03.264Z,3.15
2022-08-24T19:08:35.453Z,4.20
2022-08-24T19:11:05.254Z,4.45
2022-08-24T19:13:35.825Z,3.40
2022-08-24T19:16:06.414Z,2.38
2022-08-24T19:18:37.398Z,2.33
2022-08-24T19:21:07.219Z,2.20
2022-08-24T19:23:39.419Z,3.17
2022-08-24T19:26:08.869Z,3.70
2022-08-24T19:28:38.362Z,3.13
2022-08-24T19:31:14.213Z,3.60
2022-08-24T19:33:50.006Z,5.25
2022-08-24T19:36:22.479Z,2.65
2022-08-24T19:38:52.253Z,4.05
2022-08-24T19:41:23.040Z,7.00
2022-08-24T19:44:26.139Z,2.20
2022-08-24T19:46:57.485Z,3.40
2022-08-24T19:49:28.708Z,3.08
2022-08-24T19:51:58.584Z,5.32
2022-08-24T19:54:28.887Z,3.15
2022-08-24T19:57:01.747Z,2.35
2022-08-24T19:59:39.052Z,3.13
2022-08-24T20:02:08.886Z,2.80
2022-08-24T20:04:39.589Z,2.30
2022-08-24T20:07:18.002Z,6.75
2022-08-24T20:09:48.684Z,2.35
2022-08-24T20:12:18.294Z,3.08
2022-08-24T20:14:47.463Z,4.10
2022-08-24T20:17:16.643Z,3.72
2022-08-24T20:19:47.444Z,2.22
2022-08-24T20:22:16.901Z,2.78
2022-08-24T20:24:46.108Z,3.35
2022-08-24T20:27:18.951Z,2.80
2022-08-24T20:29:48.174Z,2.58
2022-08-24T20:32:17.335Z,2.25
2022-08-24T20:34:47.912Z,3.10
2022-08-24T20:37:21.606Z,3.10
2022-08-24T20:39:50.848Z,1.77
2022-08-24T20:42:21.458Z,2.90
2022-08-24T20:44:50.868Z,3.42
2022-08-24T20:47:20.443Z,3.60
2022-08-24T20:49:51.761Z,2.10
2022-08-24T20:52:21.297Z,3.95
2022-08-24T20:54:50.676Z,3.20
2022-08-24T20:57:21.741Z,3.58
2022-08-24T20:59:51.060Z,3.40
2022-08-24T21:02:20.157Z,2.80
2022-08-24T21:04:50.778Z,5.43
2022-08-24T21:07:20.047Z,4.95
2022-08-24T21:09:49.254Z,2.92
2022-08-24T21:12:18.700Z,1.95
2022-08-24T21:14:47.861Z,3.13
2022-08-24T21:17:21.003Z,4.13
2022-08-24T21:19:51.619Z,2.25
2022-08-24T21:22:20.932Z,4.35
2022-08-24T21:24:50.168Z,2.50
2022-08-24T21:27:19.733Z,2.70
2022-08-24T21:29:48.925Z,2.67
2022-08-24T21:32:35.332Z,3.17
2022-08-24T21:35:06.576Z,4.28
2022-08-24T21:37:36.152Z,2.30
2022-08-24T21:40:06.959Z,2.28
2022-08-24T21:42:36.899Z,7.82
2022-08-24T21:45:07.548Z,4.03
2022-08-24T21:47:37.470Z,2.08
2022-08-24T21:50:09.514Z,4.15
2022-08-24T21:52:38.806Z,5.05
2022-08-24T21:55:14.227Z,3.38
2022-08-24T21:57:45.019Z,3.47
2022-08-24T22:00:18.573Z,2.45
2022-08-24T22:02:48.969Z,2.35
2022-08-24T22:05:19.937Z,2.72
2022-08-24T22:07:49.260Z,7.45
2022-08-24T22:10:18.447Z,3.22
2022-08-24T22:12:47.586Z,2.15
2022-08-24T22:15:18.611Z,3.05
2022-08-24T22:17:52.971Z,3.03
2022-08-24T22:20:23.805Z,4.05
2022-08-24T22:22:53.116Z,2.53
2022-08-24T22:25:22.429Z,2.08
2022-08-24T22:27:51.806Z,2.10
2022-08-24T22:30:21.062Z,2.13
2022-08-24T22:32:50.303Z,3.83
2022-08-24T22:35:19.546Z,2.58
2022-08-24T22:37:50.281Z,2.30
2022-08-24T22:40:20.001Z,2.90
2022-08-24T22:42:49.139Z,3.15
2022-08-24T22:45:18.409Z,2.42
2022-08-24T22:47:47.684Z,4.30
2022-08-24T22:50:18.655Z,3.38
2022-08-24T22:52:49.328Z,2.60
2022-08-24T22:55:18.676Z,3.67
2022-08-24T22:57:51.242Z,3.88
2022-08-24T23:00:21.271Z,2.60
2022-08-24T23:02:50.507Z,4.57
2022-08-24T23:05:19.745Z,3.05
2022-08-24T23:07:50.483Z,2.05
2022-08-24T23:10:20.277Z,3.50
2022-08-24T23:12:49.392Z,2.08
2022-08-24T23:15:18.749Z,2.83
2022-08-24T23:17:47.993Z,3.00
2022-08-24T23:20:16.206Z,2.10
2022-08-24T23:22:45.341Z,3.78
2022-08-24T23:25:16.038Z,3.58
2022-08-24T23:27:49.379Z,3.10
2022-08-24T23:30:19.287Z,2.17
2022-08-24T23:32:48.675Z,2.40
2022-08-24T23:35:17.924Z,1.77
2022-08-24T23:37:47.893Z,3.40
2022-08-24T23:40:19.127Z,3.78
2022-08-24T23:42:48.369Z,2.80
2022-08-24T23:45:17.753Z,3.45
2022-08-24T23:47:46.962Z,3.25
2022-08-24T23:50:18.884Z,3.08
2022-08-24T23:52:48.023Z,4.43
2022-08-24T23:55:21.130Z,2.40
2022-08-24T23:57:52.138Z,4.43
